Time;durP1;ratioP1;P1;durP2;ratioP2;P2;SDS_P1;SDS_P2;PMS_P1;PMS_P2;Temp;Humidity;BMP_temperature;BMP_pressure;BME280_temperature;BME280_humidity;BME280_pressure;Samples;Min_cycle;Max_cycle;Signal;HPM_P1;HPM_P2
2023/10/29 00:00:43;;;;;;;3.25;1.02;;;;;;;13.32;100.00;98565.06;10329424;28;20083;-59
2023/10/29 00:05:45;;;;;;;2.45;0.88;;;;;;;13.28;100.00;98550.41;10335662;28;20120;-58
2023/10/29 00:10:46;;;;;;;2.75;1.33;;;;;;;13.28;100.00;98550.41;10328485;28;20137;-58
2023/10/29 00:15:48;;;;;;;2.67;1.05;;;;;;;13.23;100.00;98542.13;10317657;28;20069;-59
2023/10/29 00:20:49;;;;;;;5.00;1.05;;;;;;;13.22;100.00;98535.94;10330681;28;20050;-58
2023/10/29 00:25:51;;;;;;;3.35;0.93;;;;;;;13.25;100.00;98540.91;10321843;28;20049;-58
2023/10/29 00:30:55;;;;;;;1.52;0.60;;;;;;;13.22;99.96;98527.09;10337157;28;20517;-58
2023/10/29 00:35:59;;;;;;;5.40;1.10;;;;;;;13.22;100.00;98522.56;10336088;28;20049;-58
2023/10/29 00:41:00;;;;;;;3.03;0.98;;;;;;;13.29;99.86;98514.69;10350991;28;20179;-57
2023/10/29 00:46:03;;;;;;;4.97;1.25;;;;;;;13.32;99.99;98521.50;10353399;28;20050;-58
2023/10/29 00:51:04;;;;;;;2.33;1.00;;;;;;;13.31;99.65;98517.16;10342780;28;20062;-59
2023/10/29 00:56:06;;;;;;;2.40;1.33;;;;;;;13.29;99.55;98520.03;10335549;28;20066;-58
2023/10/29 01:01:08;;;;;;;4.07;1.00;;;;;;;13.21;100.00;98515.59;10339377;28;20476;-58
2023/10/29 01:06:11;;;;;;;1.27;1.10;;;;;;;13.30;100.00;98543.06;10337155;28;20072;-58
2023/10/29 01:11:12;;;;;;;3.38;1.00;;;;;;;13.24;99.45;98533.06;10338146;28;20608;-58
2023/10/29 01:16:14;;;;;;;2.63;0.70;;;;;;;13.32;100.00;98541.03;10321499;28;20066;-58
2023/10/29 01:21:16;;;;;;;2.63;1.00;;;;;;;13.38;100.00;98539.50;10321246;28;20050;-57
2023/10/29 01:26:17;;;;;;;3.55;1.13;;;;;;;13.34;100.00;98516.81;10335040;28;20057;-58
2023/10/29 01:31:19;;;;;;;2.55;1.10;;;;;;;13.29;100.00;98509.34;10333457;28;20134;-58
2023/10/29 01:36:21;;;;;;;1.58;1.02;;;;;;;13.33;99.67;98499.94;10334834;28;20561;-58
2023/10/29 01:41:24;;;;;;;2.33;1.00;;;;;;;13.43;99.77;98515.72;10334961;28;20529;-58
2023/10/29 01:46:26;;;;;;;1.55;0.70;;;;;;;13.47;99.99;98522.34;10317235;28;20089;-58
2023/10/29 01:51:28;;;;;;;6.22;1.88;;;;;;;13.47;99.93;98494.81;10321710;28;20054;-58
2023/10/29 01:56:29;;;;;;;5.28;1.05;;;;;;;13.48;100.00;98475.06;10321530;28;20054;-58
2023/10/29 02:01:31;;;;;;;4.40;0.93;;;;;;;13.48;99.61;98461.69;10338173;28;20068;-58
2023/10/29 02:06:38;;;;;;;2.25;1.10;;;;;;;13.48;99.24;98464.38;10319227;28;20058;-58
2023/10/29 02:11:39;;;;;;;1.98;0.75;;;;;;;13.34;99.51;98433.97;10325910;28;20426;-58
2023/10/29 02:16:41;;;;;;;3.22;1.60;;;;;;;13.43;99.47;98446.22;10335004;28;20050;-58
2023/10/29 02:21:43;;;;;;;2.80;1.02;;;;;;;13.43;99.99;98428.34;10327079;28;20494;-58
2023/10/29 02:26:46;;;;;;;3.17;1.65;;;;;;;13.38;99.33;98403.22;10332800;28;20168;-58
2023/10/29 02:31:48;;;;;;;3.33;1.08;;;;;;;13.35;99.01;98385.69;10324291;28;20046;-58
2023/10/29 02:36:49;;;;;;;2.15;0.98;;;;;;;13.30;98.43;98382.75;10319311;28;20226;-58
2023/10/29 02:41:51;;;;;;;1.80;1.17;;;;;;;13.36;98.11;98456.84;10336061;28;20133;-58
2023/10/29 02:46:53;;;;;;;3.15;1.20;;;;;;;13.35;98.26;98473.06;10333544;28;20100;-59
2023/10/29 02:51:54;;;;;;;3.20;1.33;;;;;;;13.36;99.84;98480.91;10334443;28;20616;-58
2023/10/29 02:56:56;;;;;;;2.10;1.05;;;;;;;13.38;99.93;98443.28;10318350;28;20080;-58
2023/10/29 03:01:57;;;;;;;2.67;1.25;;;;;;;13.43;99.98;98433.69;10329641;28;20045;-58
2023/10/29 03:06:59;;;;;;;2.17;1.00;;;;;;;13.37;99.90;98453.13;10349465;28;20414;-57
2023/10/29 03:12:00;;;;;;;3.72;1.20;;;;;;;13.38;99.87;98441.44;10336203;28;20045;-58
2023/10/29 03:17:01;;;;;;;2.38;0.85;;;;;;;13.43;99.60;98447.03;10319942;28;20066;-58
2023/10/29 03:22:04;;;;;;;2.45;1.70;;;;;;;13.44;99.22;98438.03;10333441;28;20046;-58
2023/10/29 03:27:06;;;;;;;1.60;1.00;;;;;;;13.46;99.48;98435.16;10336253;28;20064;-58
2023/10/29 03:32:07;;;;;;;3.17;0.93;;;;;;;13.41;99.94;98433.06;10333061;28;20136;-59
2023/10/29 03:37:09;;;;;;;1.40;1.00;;;;;;;13.49;100.00;98450.00;10323466;28;20065;-58
2023/10/29 03:42:11;;;;;;;4.03;1.35;;;;;;;13.44;99.68;98463.94;10333198;28;20046;-58
2023/10/29 03:47:13;;;;;;;3.42;1.42;;;;;;;13.48;99.60;98453.69;10334101;28;20157;-59
2023/10/29 03:52:14;;;;;;;1.80;1.30;;;;;;;13.42;99.66;98445.41;10335014;28;20038;-59
2023/10/29 03:57:16;;;;;;;3.15;1.42;;;;;;;13.47;98.81;98457.41;10319388;28;20042;-58
2023/10/29 04:02:17;;;;;;;2.15;1.17;;;;;;;13.44;98.92;98454.06;10335088;28;20664;-58
2023/10/29 04:07:19;;;;;;;3.25;1.27;;;;;;;13.46;99.24;98461.06;10342628;28;20725;-59
2023/10/29 04:12:20;;;;;;;3.08;1.45;;;;;;;13.42;99.00;98453.44;10329276;28;20088;-58
2023/10/29 04:17:22;;;;;;;2.08;1.30;;;;;;;13.40;99.04;98458.09;10337094;28;20061;-58
2023/10/29 04:22:24;;;;;;;3.10;1.33;;;;;;;13.39;99.03;98456.47;10341749;28;20046;-59
2023/10/29 04:27:25;;;;;;;3.80;1.00;;;;;;;13.36;98.75;98472.88;10342949;28;20057;-59
2023/10/29 04:32:28;;;;;;;3.28;1.25;;;;;;;13.35;99.49;98463.19;10337026;28;20053;-58
2023/10/29 04:37:29;;;;;;;2.63;1.33;;;;;;;13.33;98.49;98457.19;10339248;28;20058;-58
2023/10/29 04:42:31;;;;;;;3.08;1.00;;;;;;;13.32;97.92;98457.38;10339956;28;20049;-59
2023/10/29 04:47:32;;;;;;;3.85;1.00;;;;;;;13.27;97.87;98444.56;10344011;28;20057;-59
2023/10/29 04:52:34;;;;;;;4.15;1.67;;;;;;;13.34;97.38;98453.50;10319565;28;20045;-58
2023/10/29 04:57:36;;;;;;;2.25;0.98;;;;;;;13.40;97.32;98465.31;10337332;28;20057;-58
2023/10/29 05:02:41;;;;;;;2.92;1.20;;;;;;;13.40;97.06;98466.13;10326929;28;20074;-57
2023/10/29 05:07:44;;;;;;;2.53;1.45;;;;;;;13.31;96.38;98459.19;10338511;28;20064;-59
2023/10/29 05:12:46;;;;;;;1.50;0.90;;;;;;;13.36;96.08;98475.56;10351712;28;20054;-57
2023/10/29 05:17:47;;;;;;;2.20;1.10;;;;;;;13.23;96.12;98461.97;10338118;28;20065;-58
2023/10/29 05:22:49;;;;;;;3.05;1.23;;;;;;;13.32;96.88;98465.38;10318778;28;20042;-58
2023/10/29 05:27:52;;;;;;;2.90;1.05;;;;;;;13.20;96.05;98449.00;10340482;28;20077;-58
2023/10/29 05:32:53;;;;;;;2.55;0.80;;;;;;;13.27;96.18;98461.41;10335194;28;20125;-60
2023/10/29 05:37:55;;;;;;;2.92;0.77;;;;;;;13.21;95.00;98459.50;10335880;28;20683;-58
2023/10/29 05:42:59;;;;;;;3.23;0.93;;;;;;;13.15;95.96;98465.56;10340407;28;20046;-58
2023/10/29 05:48:00;;;;;;;2.03;0.93;;;;;;;13.24;96.40;98485.00;10349949;28;20113;-58
2023/10/29 05:53:02;;;;;;;3.28;0.80;;;;;;;13.23;96.32;98480.69;10335620;28;20057;-58
2023/10/29 05:58:04;;;;;;;3.00;1.08;;;;;;;13.25;96.04;98481.31;10335990;28;20083;-58
2023/10/29 06:03:05;;;;;;;2.15;0.90;;;;;;;13.29;96.21;98495.16;10338655;28;20077;-58
2023/10/29 06:08:07;;;;;;;1.75;0.60;;;;;;;13.22;96.28;98524.44;10333213;28;20065;-58
2023/10/29 06:13:12;;;;;;;1.10;0.60;;;;;;;13.07;97.33;98490.50;10315853;28;20160;-58
2023/10/29 06:18:16;;;;;;;2.75;0.65;;;;;;;13.19;98.35;98509.59;10299065;28;20792;-57
2023/10/29 06:23:18;;;;;;;3.80;0.52;;;;;;;13.19;99.10;98519.44;10284719;28;20073;-57
2023/10/29 06:28:19;;;;;;;1.50;1.13;;;;;;;13.20;99.53;98524.63;10292568;28;20064;-55
2023/10/29 06:33:20;;;;;;;5.00;0.80;;;;;;;13.12;100.00;98497.16;10301464;28;21216;-61
2023/10/29 06:38:22;;;;;;;1.92;0.70;;;;;;;13.25;100.00;98505.34;10303313;28;20053;-57
2023/10/29 06:43:24;;;;;;;3.63;1.75;;;;;;;13.29;100.00;98476.44;10292506;28;20058;-57
2023/10/29 06:48:26;;;;;;;3.35;0.90;;;;;;;13.23;100.00;98508.22;10290001;28;20041;-58
2023/10/29 06:53:29;;;;;;;2.20;0.73;;;;;;;13.16;100.00;98467.22;10307276;28;20089;-56
2023/10/29 06:58:33;;;;;;;2.88;1.00;;;;;;;13.10;100.00;98465.28;10297752;28;20109;-56
2023/10/29 07:03:35;;;;;;;1.48;0.90;;;;;;;12.98;100.00;98448.88;10295777;28;20622;-57
2023/10/29 07:08:38;;;;;;;2.75;0.90;;;;;;;13.24;100.00;98485.00;10288674;28;20069;-57
2023/10/29 07:13:39;;;;;;;3.28;1.00;;;;;;;13.18;100.00;98453.66;10290470;28;20042;-57
2023/10/29 07:18:41;;;;;;;4.45;0.80;;;;;;;13.21;100.00;98486.22;10298226;28;20061;-57
2023/10/29 07:23:42;;;;;;;2.28;0.90;;;;;;;13.25;100.00;98483.97;10289410;28;20110;-59
2023/10/29 07:28:44;;;;;;;3.00;0.90;;;;;;;13.23;100.00;98478.00;10289395;28;20085;-58
2023/10/29 07:33:47;;;;;;;1.25;0.73;;;;;;;13.25;100.00;98465.28;10286246;28;20053;-59
2023/10/29 07:38:48;;;;;;;2.60;0.88;;;;;;;13.24;100.00;98479.66;10310476;28;20564;-58
2023/10/29 07:43:49;;;;;;;2.78;0.95;;;;;;;13.24;100.00;98455.59;10309724;28;20068;-57
2023/10/29 07:48:51;;;;;;;2.17;1.00;;;;;;;13.28;100.00;98454.22;10321196;28;20061;-61
2023/10/29 07:53:53;;;;;;;2.67;1.17;;;;;;;13.30;100.00;98468.25;10310703;28;20067;-57
2023/10/29 07:58:55;;;;;;;2.70;0.77;;;;;;;13.26;100.00;98466.94;10281873;28;20053;-58
2023/10/29 08:03:57;;;;;;;2.22;0.90;;;;;;;13.35;100.00;98465.88;10302077;28;20505;-58
2023/10/29 08:08:59;;;;;;;1.45;0.70;;;;;;;13.46;100.00;98464.56;10283743;28;20116;-57
2023/10/29 08:14:00;;;;;;;2.05;0.90;;;;;;;13.49;100.00;98442.00;10297669;28;20054;-58
2023/10/29 08:19:02;;;;;;;1.80;0.68;;;;;;;13.41;100.00;98408.19;10297336;28;20065;-59
2023/10/29 08:24:04;;;;;;;3.58;1.00;;;;;;;13.61;100.00;98448.50;10311247;28;20062;-58
2023/10/29 08:29:06;;;;;;;1.73;0.50;;;;;;;13.66;100.00;98458.63;10282428;28;20879;-58
2023/10/29 08:34:07;;;;;;;1.15;0.57;;;;;;;13.71;100.00;98470.44;10287223;28;20192;-59
2023/10/29 08:39:09;;;;;;;1.08;0.50;;;;;;;13.76;100.00;98473.38;10295469;28;20070;-58
2023/10/29 08:44:11;;;;;;;1.92;0.30;;;;;;;13.81;100.00;98490.69;10284643;28;20618;-57
2023/10/29 08:49:12;;;;;;;1.88;0.55;;;;;;;13.88;100.00;98513.00;10295442;28;20241;-57
2023/10/29 08:54:14;;;;;;;1.02;0.52;;;;;;;13.96;100.00;98499.50;10298506;28;20056;-58
2023/10/29 08:59:15;;;;;;;1.30;0.70;;;;;;;14.01;100.00;98518.50;10315279;28;20172;-58
2023/10/29 09:04:19;;;;;;;2.60;0.77;;;;;;;13.97;100.00;98527.94;10294604;28;20135;-58
2023/10/29 09:09:21;;;;;;;2.23;0.73;;;;;;;13.97;100.00;98562.69;10293818;28;20061;-60
2023/10/29 09:14:23;;;;;;;1.60;0.60;;;;;;;13.99;100.00;98579.41;10298690;28;20108;-58
2023/10/29 09:19:25;;;;;;;1.80;0.57;;;;;;;14.05;100.00;98588.50;10298288;28;20069;-55
2023/10/29 09:24:26;;;;;;;2.58;0.73;;;;;;;14.05;100.00;98575.13;10301136;28;20050;-57
2023/10/29 09:29:31;;;;;;;3.55;0.90;;;;;;;14.09;100.00;98566.53;10290747;28;20081;-55
2023/10/29 09:34:34;;;;;;;2.88;0.60;;;;;;;14.07;100.00;98567.78;10299823;28;20057;-55
2023/10/29 09:39:37;;;;;;;1.20;0.67;;;;;;;14.07;100.00;98570.44;10290104;28;20050;-56
2023/10/29 09:44:40;;;;;;;1.58;0.65;;;;;;;14.09;100.00;98563.88;10293544;28;20767;-58
2023/10/29 09:49:44;;;;;;;2.67;1.23;;;;;;;14.13;100.00;98559.81;10289122;28;20058;-56
2023/10/29 09:54:46;;;;;;;1.90;1.02;;;;;;;14.19;100.00;98557.41;10296827;28;20070;-58
2023/10/29 09:59:49;;;;;;;3.08;0.90;;;;;;;14.21;100.00;98560.72;10295739;28;20443;-58
2023/10/29 10:04:54;;;;;;;2.92;1.15;;;;;;;14.17;100.00;98586.19;10284726;28;20192;-59
2023/10/29 10:09:56;;;;;;;1.30;0.90;;;;;;;14.06;100.00;98548.19;10307095;28;20050;-56
2023/10/29 10:15:04;;;;;;;2.45;0.90;;;;;;;14.14;100.00;98565.97;10281693;28;20058;-57
2023/10/29 10:36:41;;;;;;;2.75;0.70;;;;;;;14.53;100.00;98564.75;10272921;28;20095;-60
2023/10/29 10:41:45;;;;;;;2.88;0.80;;;;;;;14.45;100.00;98565.72;10277947;28;20070;-57
2023/10/29 10:46:52;;;;;;;3.35;0.75;;;;;;;14.45;100.00;98568.41;10272941;28;20065;-59
2023/10/29 10:51:55;;;;;;;2.78;0.85;;;;;;;14.36;100.00;98574.88;10275975;28;20055;-64
2023/10/29 10:56:59;;;;;;;1.50;1.00;;;;;;;14.38;100.00;98554.13;10280166;28;20168;-59
2023/10/29 11:02:02;;;;;;;7.65;5.63;;;;;;;14.36;100.00;98544.63;10278291;28;20081;-59
2023/10/29 11:07:03;;;;;;;3.47;1.98;;;;;;;14.33;100.00;98553.84;10281386;28;20057;-58
2023/10/29 11:12:05;;;;;;;2.85;1.58;;;;;;;14.38;100.00;98583.56;10277281;28;20042;-60
2023/10/29 11:17:08;;;;;;;4.10;0.90;;;;;;;14.36;100.00;98555.34;10281618;28;20898;-62
2023/10/29 11:22:14;;;;;;;1.50;0.93;;;;;;;14.32;100.00;98533.44;10245386;28;20110;-60
2023/10/29 12:12:30;;;;;;;1.42;0.68;;;;;;;14.20;100.00;98553.69;10103433;29;20047;-70
2023/10/29 12:17:32;;;;;;;1.20;0.93;;;;;;;14.19;100.00;98541.38;10151747;28;20063;-70
2023/10/29 12:22:35;;;;;;;2.42;0.70;;;;;;;14.24;100.00;98539.75;10154998;28;20044;-72
2023/10/29 12:39:15;;;;;;;1.48;0.50;;;;;;;14.09;100.00;98550.50;10128749;28;20056;-66
2023/10/29 12:44:17;;;;;;;1.45;0.50;;;;;;;14.09;100.00;98547.81;10153681;28;20055;-66
2023/10/29 13:10:21;;;;;;;2.20;0.70;;;;;;;13.89;100.00;98536.06;10039278;29;20052;-64
2023/10/29 13:15:22;;;;;;;0.98;0.80;;;;;;;13.79;100.00;98514.94;10082293;29;20063;-69
2023/10/29 13:20:26;;;;;;;1.33;0.70;;;;;;;13.79;100.00;98499.72;10107651;29;20114;-66
2023/10/29 13:25:28;;;;;;;0.90;0.60;;;;;;;13.89;100.00;98504.78;10108125;29;20155;-66
2023/10/29 13:30:30;;;;;;;1.33;0.80;;;;;;;13.92;100.00;98487.56;10093652;29;20068;-65
2023/10/29 13:35:31;;;;;;;0.60;0.40;;;;;;;13.81;100.00;98491.53;10098273;29;20060;-66
2023/10/29 13:40:39;;;;;;;1.90;0.65;;;;;;;13.83;100.00;98499.38;10085019;29;20053;-67
2023/10/29 13:45:40;;;;;;;1.08;0.55;;;;;;;13.78;100.00;98500.75;10097022;29;20461;-66
2023/10/29 13:50:42;;;;;;;1.17;0.40;;;;;;;13.79;100.00;98497.06;10083315;29;20137;-65
2023/10/29 13:55:44;;;;;;;0.43;0.28;;;;;;;13.78;100.00;98484.72;10097664;29;20055;-66
2023/10/29 14:00:45;;;;;;;0.73;0.68;;;;;;;13.72;100.00;98474.78;10099076;29;20048;-66
2023/10/29 14:05:46;;;;;;;1.02;0.52;;;;;;;13.77;100.00;98488.41;10097370;29;20135;-69
2023/10/29 14:10:48;;;;;;;1.50;0.35;;;;;;;13.82;100.00;98495.03;10100275;29;20056;-66
2023/10/29 14:15:56;;;;;;;4.15;0.43;;;;;;;13.85;100.00;98478.63;10100013;29;20323;-66
2023/10/29 14:20:59;;;;;;;0.73;0.30;;;;;;;13.81;100.00;98493.38;10098966;29;20068;-67
2023/10/29 14:26:01;;;;;;;2.97;0.88;;;;;;;13.72;100.00;98465.91;10098340;29;20791;-67
2023/10/29 14:31:03;;;;;;;1.50;0.60;;;;;;;13.87;100.00;98476.56;10094194;29;20063;-67
2023/10/29 14:36:04;;;;;;;0.95;0.50;;;;;;;13.70;100.00;98439.34;10097069;29;20753;-67
2023/10/29 14:41:06;;;;;;;1.27;0.52;;;;;;;13.67;100.00;98469.13;10085068;29;20056;-67
2023/10/29 14:46:07;;;;;;;0.88;0.40;;;;;;;13.78;100.00;98466.00;10085126;29;20492;-67
2023/10/29 14:51:09;;;;;;;0.65;0.40;;;;;;;13.84;100.00;98458.22;10091679;29;20060;-65
2023/10/29 14:56:11;;;;;;;0.57;0.47;;;;;;;13.88;100.00;98459.50;10095067;29;20142;-66
2023/10/29 15:01:13;;;;;;;0.55;0.38;;;;;;;13.88;100.00;98470.22;10097262;29;20126;-65
2023/10/29 15:06:15;;;;;;;0.90;0.80;;;;;;;13.95;100.00;98463.09;10079514;29;20056;-67
2023/10/29 15:11:17;;;;;;;0.77;0.52;;;;;;;13.77;100.00;98464.34;10075503;29;20052;-65
2023/10/29 15:16:36;;;;;;;1.13;0.40;;;;;;;13.88;100.00;98460.34;10091219;29;20685;-66
2023/10/29 15:21:38;;;;;;;1.40;0.68;;;;;;;13.98;100.00;98470.75;10090804;29;20576;-67
2023/10/29 15:26:39;;;;;;;1.40;0.55;;;;;;;13.98;100.00;98537.63;10092830;29;20060;-65
2023/10/29 15:31:41;;;;;;;2.28;0.90;;;;;;;13.94;100.00;98528.31;10091528;29;20244;-64
2023/10/29 15:36:42;;;;;;;2.13;0.85;;;;;;;13.91;100.00;98544.72;10095358;29;20067;-66
2023/10/29 15:41:44;;;;;;;1.50;0.40;;;;;;;13.85;100.00;98557.00;10091320;29;20055;-66
2023/10/29 15:46:47;;;;;;;0.85;0.30;;;;;;;13.81;100.00;98565.56;10096738;29;20574;-65
2023/10/29 15:51:48;;;;;;;2.75;0.60;;;;;;;13.81;100.00;98566.44;10091055;29;20150;-66
2023/10/29 15:56:50;;;;;;;1.10;0.30;;;;;;;13.79;100.00;98604.03;10090300;29;20052;-67
2023/10/29 16:01:52;;;;;;;2.10;0.40;;;;;;;13.67;100.00;98565.41;10105986;29;20095;-67
2023/10/29 16:06:54;;;;;;;0.90;0.50;;;;;;;13.68;100.00;98526.97;10106062;29;20060;-66
2023/10/29 16:11:56;;;;;;;1.90;0.50;;;;;;;13.77;100.00;98565.13;10106338;29;20135;-65
2023/10/29 16:16:58;;;;;;;2.45;0.95;;;;;;;13.74;100.00;98560.97;10100915;29;20367;-65
2023/10/29 16:22:02;;;;;;;0.73;0.40;;;;;;;13.68;100.00;98560.91;10095729;29;20052;-65
2023/10/29 16:27:04;;;;;;;1.48;0.60;;;;;;;13.69;100.00;98591.94;10099774;29;20136;-66
2023/10/29 16:32:06;;;;;;;2.05;0.60;;;;;;;13.63;100.00;98585.50;10102936;29;20075;-66
2023/10/29 16:37:07;;;;;;;2.10;0.80;;;;;;;13.69;100.00;98594.63;10102163;29;20057;-65
2023/10/29 16:42:09;;;;;;;2.22;0.95;;;;;;;13.48;100.00;98584.66;10104533;29;20068;-66
2023/10/29 16:47:10;;;;;;;1.48;1.05;;;;;;;13.56;100.00;98605.97;10099605;29;20518;-70
2023/10/29 16:52:12;;;;;;;2.22;0.80;;;;;;;13.64;100.00;98624.59;10099187;29;20052;-66
2023/10/29 16:57:13;;;;;;;1.23;0.73;;;;;;;13.58;100.00;98636.00;10100974;29;20350;-66
2023/10/29 17:02:15;;;;;;;2.97;0.60;;;;;;;13.53;100.00;98606.34;10107103;29;20054;-67
2023/10/29 17:07:16;;;;;;;1.50;1.02;;;;;;;13.44;100.00;98578.84;10096874;29;20063;-65
2023/10/29 17:12:18;;;;;;;2.95;1.00;;;;;;;13.49;100.00;98594.34;10096477;29;20087;-67
2023/10/29 17:17:21;;;;;;;2.75;0.57;;;;;;;13.50;100.00;98596.84;10096765;29;20067;-65
2023/10/29 17:22:24;;;;;;;1.97;0.53;;;;;;;13.50;100.00;98588.81;10095596;29;21206;-66
2023/10/29 17:27:30;;;;;;;1.40;0.65;;;;;;;13.53;100.00;98568.91;10102990;29;20059;-65
2023/10/29 17:32:31;;;;;;;1.52;0.40;;;;;;;13.54;100.00;98591.94;10100983;29;20056;-66
2023/10/29 17:37:33;;;;;;;1.55;0.63;;;;;;;13.49;100.00;98594.34;10106056;29;20075;-67
2023/10/29 17:42:34;;;;;;;1.83;0.68;;;;;;;13.48;100.00;98603.38;10097532;29;20051;-66
2023/10/29 17:47:36;;;;;;;3.25;0.60;;;;;;;13.54;100.00;98616.00;10099432;29;20570;-64
2023/10/29 17:52:37;;;;;;;1.45;0.65;;;;;;;13.52;100.00;98631.41;10091190;29;20056;-66
2023/10/29 17:57:38;;;;;;;1.20;0.55;;;;;;;13.46;100.00;98659.69;10095369;29;20064;-66
2023/10/29 18:02:41;;;;;;;1.77;0.80;;;;;;;13.46;100.00;98661.53;10100570;29;20067;-66
2023/10/29 18:07:43;;;;;;;2.35;0.70;;;;;;;13.40;100.00;98623.00;10102752;29;20052;-66
2023/10/29 18:12:44;;;;;;;1.10;0.52;;;;;;;13.38;100.00;98649.91;10101973;29;20267;-65
2023/10/29 18:17:46;;;;;;;2.03;0.68;;;;;;;13.35;100.00;98638.75;10099869;29;20430;-65
2023/10/29 18:22:48;;;;;;;1.38;0.52;;;;;;;13.36;100.00;98654.59;10104848;29;20453;-68
2023/10/29 18:27:50;;;;;;;1.63;0.60;;;;;;;13.32;100.00;98674.63;10096235;29;20063;-67
2023/10/29 18:32:55;;;;;;;2.38;0.80;;;;;;;13.27;100.00;98666.34;10095601;29;20059;-69
2023/10/29 18:38:00;;;;;;;1.42;0.60;;;;;;;13.35;100.00;98682.31;10096137;29;20515;-65
2023/10/29 18:49:30;;;;;;;1.67;0.57;;;;;;;13.30;100.00;98692.72;10192659;23;20059;-60
2023/10/29 18:54:33;;;;;;;3.13;0.70;;;;;;;13.35;100.00;98702.88;10197313;28;21260;-59
2023/10/29 18:59:35;;;;;;;1.65;0.80;;;;;;;13.33;100.00;98697.69;10202827;28;20066;-57
2023/10/29 19:04:37;;;;;;;2.13;0.70;;;;;;;13.28;100.00;98700.06;10203345;28;20062;-59
2023/10/29 19:09:39;;;;;;;2.67;0.50;;;;;;;13.38;100.00;98723.91;10201349;28;20082;-49
2023/10/29 19:14:42;;;;;;;1.98;0.73;;;;;;;13.42;100.00;98728.72;10203120;28;20047;-48
2023/10/29 19:19:43;;;;;;;3.55;0.73;;;;;;;13.41;100.00;98729.72;10202961;28;20130;-50
2023/10/29 19:24:45;;;;;;;1.45;0.40;;;;;;;13.46;100.00;98745.22;10200112;28;20067;-48
2023/10/29 19:29:46;;;;;;;2.75;1.10;;;;;;;13.46;100.00;98750.56;10188553;28;20150;-48
2023/10/29 19:34:48;;;;;;;1.65;0.70;;;;;;;13.50;100.00;98757.22;10191719;28;20058;-51
2023/10/29 19:39:50;;;;;;;1.67;0.90;;;;;;;13.54;100.00;98752.31;10176873;28;20423;-49
2023/10/29 19:44:52;;;;;;;1.20;0.68;;;;;;;13.46;100.00;98760.44;10175836;28;20050;-48
2023/10/29 19:49:54;;;;;;;2.20;0.30;;;;;;;13.47;100.00;98767.44;10177581;28;20059;-49
2023/10/29 19:54:55;;;;;;;1.77;0.47;;;;;;;13.46;100.00;98776.47;10178215;28;20077;-50
2023/10/29 19:59:57;;;;;;;0.88;0.40;;;;;;;13.48;100.00;98774.44;10179948;28;20095;-50
2023/10/29 20:04:58;;;;;;;1.13;0.50;;;;;;;13.47;100.00;98778.13;10165412;28;20069;-58
2023/10/29 20:10:00;;;;;;;2.15;0.60;;;;;;;13.41;100.00;98793.84;10179591;28;20066;-58
2023/10/29 20:15:03;;;;;;;2.00;0.60;;;;;;;13.35;100.00;98799.91;10182511;28;20047;-59
2023/10/29 20:20:06;;;;;;;1.98;0.60;;;;;;;13.34;100.00;98792.06;10180317;28;20069;-59
2023/10/29 20:25:08;;;;;;;1.53;0.80;;;;;;;13.23;100.00;98809.31;10176925;28;20105;-59
2023/10/29 20:30:10;;;;;;;2.22;0.50;;;;;;;13.13;100.00;98811.38;10179201;28;20199;-59
2023/10/29 20:35:12;;;;;;;1.85;0.70;;;;;;;13.23;100.00;98847.53;10179520;28;20055;-59
2023/10/29 20:40:14;;;;;;;3.95;1.13;;;;;;;13.24;100.00;98861.72;10177651;28;20215;-59
2023/10/29 20:45:16;;;;;;;1.00;0.45;;;;;;;13.18;100.00;98871.28;10168501;28;20063;-59
2023/10/29 20:50:19;;;;;;;1.95;0.90;;;;;;;13.21;100.00;98854.06;10153762;28;20475;-59
2023/10/29 20:55:22;;;;;;;2.33;0.95;;;;;;;13.19;100.00;98861.44;10182168;28;20062;-60
2023/10/29 21:00:26;;;;;;;2.75;0.85;;;;;;;13.23;100.00;98850.22;10176560;28;20079;-59
2023/10/29 21:05:32;;;;;;;2.83;0.70;;;;;;;13.20;100.00;98868.44;10227462;29;20044;-60
2023/10/29 21:10:34;;;;;;;1.45;0.60;;;;;;;13.22;100.00;98875.25;10229267;28;20047;-59
2023/10/29 21:15:40;;;;;;;3.25;0.60;;;;;;;13.25;100.00;98868.75;10228403;29;20054;-59
2023/10/29 21:20:44;;;;;;;3.58;1.00;;;;;;;13.25;100.00;98890.94;10231470;29;20047;-58
2023/10/29 21:25:46;;;;;;;1.85;0.80;;;;;;;13.27;100.00;98882.78;10232300;29;20103;-58
2023/10/29 21:30:48;;;;;;;2.35;0.63;;;;;;;13.21;100.00;98875.44;10231505;29;20427;-59
2023/10/29 21:35:50;;;;;;;2.03;0.75;;;;;;;13.25;100.00;98887.44;10228829;29;20055;-58
2023/10/29 21:40:53;;;;;;;1.35;0.65;;;;;;;13.32;100.00;98904.47;10228834;29;20062;-59
2023/10/29 21:45:56;;;;;;;2.28;0.60;;;;;;;13.26;100.00;98905.97;10230973;28;20126;-58
2023/10/29 21:51:02;;;;;;;2.10;0.90;;;;;;;13.30;100.00;98900.28;10230976;28;20179;-59
2023/10/29 21:56:05;;;;;;;2.77;0.53;;;;;;;13.31;100.00;98913.47;10230396;28;20070;-59
2023/10/29 22:01:09;;;;;;;3.35;1.30;;;;;;;13.33;100.00;98913.31;10228517;29;20086;-58
2023/10/29 22:06:11;;;;;;;4.05;0.88;;;;;;;13.35;100.00;98898.78;10229828;29;20191;-58
2023/10/29 22:11:13;;;;;;;3.72;1.13;;;;;;;13.33;100.00;98916.81;10228653;29;20079;-58
2023/10/29 22:16:14;;;;;;;1.33;0.57;;;;;;;13.26;100.00;98897.16;10228819;28;20055;-58
2023/10/29 22:21:16;;;;;;;1.48;0.90;;;;;;;13.34;100.00;98913.16;10230223;28;20070;-57
2023/10/29 22:26:18;;;;;;;3.20;0.60;;;;;;;13.37;100.00;98912.81;10228280;28;20138;-59
2023/10/29 22:31:20;;;;;;;2.58;0.80;;;;;;;13.44;100.00;98899.59;10226653;29;20055;-59
2023/10/29 22:36:22;;;;;;;1.27;0.60;;;;;;;13.47;100.00;98915.28;10227219;29;20428;-62
2023/10/29 22:41:24;;;;;;;0.70;0.32;;;;;;;13.43;100.00;98906.75;10226646;29;20128;-59
2023/10/29 22:46:25;;;;;;;2.00;0.93;;;;;;;13.47;100.00;98911.78;10254488;28;20054;-58
2023/10/29 22:51:27;;;;;;;3.60;1.13;;;;;;;13.48;100.00;98918.78;10253803;29;20058;-58
2023/10/29 22:56:29;;;;;;;3.13;0.88;;;;;;;13.45;100.00;98925.31;10229200;28;20142;-59
2023/10/29 23:01:31;;;;;;;2.65;0.73;;;;;;;13.40;100.00;98939.19;10227902;28;20047;-57
2023/10/29 23:06:33;;;;;;;1.38;0.75;;;;;;;13.36;100.00;98940.56;10230762;28;20052;-59
2023/10/29 23:11:35;;;;;;;2.10;0.85;;;;;;;13.34;100.00;98973.81;10225098;29;20157;-59
2023/10/29 23:16:36;;;;;;;1.20;0.73;;;;;;;13.36;100.00;98980.66;10227665;28;20063;-58
2023/10/29 23:21:38;;;;;;;2.50;1.17;;;;;;;13.34;100.00;98990.66;10229545;28;20053;-59
2023/10/29 23:26:39;;;;;;;1.50;1.00;;;;;;;13.30;100.00;98992.00;10226798;28;20075;-59
2023/10/29 23:31:43;;;;;;;3.47;1.30;;;;;;;13.31;100.00;98977.63;10225195;29;20113;-59
2023/10/29 23:36:45;;;;;;;2.85;1.30;;;;;;;13.35;100.00;98973.63;10225946;28;20393;-59
2023/10/29 23:41:46;;;;;;;2.33;1.30;;;;;;;13.32;100.00;98989.16;10226500;28;20047;-58
2023/10/29 23:46:48;;;;;;;3.15;1.60;;;;;;;13.32;100.00;99000.66;10223312;29;20058;-59
2023/10/29 23:51:50;;;;;;;2.97;1.45;;;;;;;13.29;100.00;98994.84;10223503;29;20118;-59
2023/10/29 23:56:52;;;;;;;2.40;1.30;;;;;;;13.20;100.00;98975.31;10206861;29;20471;-59
